sensor_id;sensor_type;location;lat;lon;timestamp;pressure;altitude;pressure_sealevel;temperature;humidity
60611;BME280;46439;51.164;13.572;2023-05-27T00:01:29;101235.61;;;14.70;100.00
60611;BME280;46439;51.164;13.572;2023-05-27T00:03:58;101232.92;;;14.60;100.00
60611;BME280;46439;51.164;13.572;2023-05-27T00:06:26;101232.67;;;14.64;100.00
60611;BME280;46439;51.164;13.572;2023-05-27T00:08:55;101235.36;;;14.64;100.00
60611;BME280;46439;51.164;13.572;2023-05-27T00:11:23;101236.38;;;14.63;100.00
60611;BME280;46439;51.164;13.572;2023-05-27T00:13:52;101234.51;;;14.60;100.00
60611;BME280;46439;51.164;13.572;2023-05-27T00:16:21;101231.42;;;14.63;100.00
60611;BME280;46439;51.164;13.572;2023-05-27T00:18:49;101227.98;;;14.55;100.00
60611;BME280;46439;51.164;13.572;2023-05-27T00:21:19;101225.23;;;14.52;100.00
60611;BME280;46439;51.164;13.572;2023-05-27T00:23:50;101227.00;;;14.51;100.00
60611;BME280;46439;51.164;13.572;2023-05-27T00:26:19;101227.04;;;14.51;100.00
60611;BME280;46439;51.164;13.572;2023-05-27T00:28:48;101228.82;;;14.48;100.00
60611;BME280;46439;51.164;13.572;2023-05-27T00:31:17;101228.35;;;14.46;100.00
60611;BME280;46439;51.164;13.572;2023-05-27T00:33:45;101228.30;;;14.51;100.00
60611;BME280;46439;51.164;13.572;2023-05-27T00:36:14;101226.71;;;14.46;100.00
60611;BME280;46439;51.164;13.572;2023-05-27T00:38:42;101233.04;;;14.39;100.00
60611;BME280;46439;51.164;13.572;2023-05-27T00:41:11;101236.41;;;14.32;100.00
60611;BME280;46439;51.164;13.572;2023-05-27T00:43:40;101235.71;;;14.23;100.00
60611;BME280;46439;51.164;13.572;2023-05-27T00:46:09;101237.38;;;14.18;100.00
60611;BME280;46439;51.164;13.572;2023-05-27T00:48:38;101241.77;;;14.04;100.00
60611;BME280;46439;51.164;13.572;2023-05-27T00:51:06;101238.63;;;14.03;100.00
60611;BME280;46439;51.164;13.572;2023-05-27T00:53:39;101241.50;;;13.96;100.00
60611;BME280;46439;51.164;13.572;2023-05-27T00:56:09;101244.41;;;13.87;100.00
60611;BME280;46439;51.164;13.572;2023-05-27T00:58:38;101244.96;;;13.83;100.00
60611;BME280;46439;51.164;13.572;2023-05-27T01:01:07;101244.67;;;13.78;100.00
60611;BME280;46439;51.164;13.572;2023-05-27T01:03:35;101248.66;;;13.74;100.00
60611;BME280;46439;51.164;13.572;2023-05-27T01:06:10;101246.05;;;13.71;100.00
60611;BME280;46439;51.164;13.572;2023-05-27T01:08:49;101243.50;;;13.74;100.00
60611;BME280;46439;51.164;13.572;2023-05-27T01:11:24;101245.21;;;13.87;100.00
60611;BME280;46439;51.164;13.572;2023-05-27T01:13:59;101241.92;;;13.87;100.00
60611;BME280;46439;51.164;13.572;2023-05-27T01:16:29;101241.98;;;13.81;100.00
60611;BME280;46439;51.164;13.572;2023-05-27T01:18:59;101240.45;;;13.69;100.00
60611;BME280;46439;51.164;13.572;2023-05-27T01:21:31;101241.33;;;13.62;100.00
60611;BME280;46439;51.164;13.572;2023-05-27T01:24:06;101242.44;;;13.59;100.00
60611;BME280;46439;51.164;13.572;2023-05-27T01:26:35;101241.70;;;13.52;100.00
60611;BME280;46439;51.164;13.572;2023-05-27T01:29:04;101240.08;;;13.47;100.00
60611;BME280;46439;51.164;13.572;2023-05-27T01:31:39;101239.45;;;13.43;100.00
60611;BME280;46439;51.164;13.572;2023-05-27T01:34:12;101237.78;;;13.38;100.00
60611;BME280;46439;51.164;13.572;2023-05-27T01:36:45;101237.27;;;13.33;100.00
60611;BME280;46439;51.164;13.572;2023-05-27T01:39:16;101237.69;;;13.27;100.00
60611;BME280;46439;51.164;13.572;2023-05-27T01:41:47;101233.02;;;13.20;100.00
60611;BME280;46439;51.164;13.572;2023-05-27T01:44:17;101231.11;;;13.14;100.00
60611;BME280;46439;51.164;13.572;2023-05-27T01:46:46;101227.71;;;13.11;100.00
60611;BME280;46439;51.164;13.572;2023-05-27T01:49:15;101220.52;;;13.10;100.00
60611;BME280;46439;51.164;13.572;2023-05-27T01:51:43;101222.35;;;13.20;100.00
60611;BME280;46439;51.164;13.572;2023-05-27T01:54:11;101220.35;;;13.20;100.00
60611;BME280;46439;51.164;13.572;2023-05-27T01:56:40;101220.17;;;13.20;100.00
60611;BME280;46439;51.164;13.572;2023-05-27T01:59:09;101221.98;;;13.06;100.00
60611;BME280;46439;51.164;13.572;2023-05-27T02:01:37;101220.88;;;12.98;100.00
60611;BME280;46439;51.164;13.572;2023-05-27T02:04:06;101216.90;;;12.93;100.00
60611;BME280;46439;51.164;13.572;2023-05-27T02:06:34;101219.35;;;12.90;100.00
60611;BME280;46439;51.164;13.572;2023-05-27T02:09:04;101220.25;;;12.87;100.00
60611;BME280;46439;51.164;13.572;2023-05-27T02:11:33;101220.61;;;12.82;100.00
60611;BME280;46439;51.164;13.572;2023-05-27T02:14:04;101221.16;;;12.77;100.00
60611;BME280;46439;51.164;13.572;2023-05-27T02:16:33;101212.61;;;12.74;100.00
60611;BME280;46439;51.164;13.572;2023-05-27T02:19:02;101209.13;;;12.71;100.00
60611;BME280;46439;51.164;13.572;2023-05-27T02:21:30;101209.13;;;12.76;100.00
60611;BME280;46439;51.164;13.572;2023-05-27T02:23:59;101208.15;;;12.67;100.00
60611;BME280;46439;51.164;13.572;2023-05-27T02:26:28;101206.52;;;12.61;100.00
60611;BME280;46439;51.164;13.572;2023-05-27T02:28:56;101202.35;;;12.55;100.00
60611;BME280;46439;51.164;13.572;2023-05-27T02:31:25;101204.33;;;12.44;100.00
60611;BME280;46439;51.164;13.572;2023-05-27T02:33:54;101202.80;;;12.33;100.00
60611;BME280;46439;51.164;13.572;2023-05-27T02:36:22;101207.27;;;12.21;100.00
60611;BME280;46439;51.164;13.572;2023-05-27T02:38:52;101213.46;;;12.14;100.00
60611;BME280;46439;51.164;13.572;2023-05-27T02:41:20;101210.91;;;12.12;100.00
60611;BME280;46439;51.164;13.572;2023-05-27T02:43:49;101212.77;;;12.11;100.00
60611;BME280;46439;51.164;13.572;2023-05-27T02:46:17;101215.04;;;12.07;100.00
60611;BME280;46439;51.164;13.572;2023-05-27T02:48:46;101215.40;;;11.96;100.00
60611;BME280;46439;51.164;13.572;2023-05-27T02:51:14;101217.40;;;11.92;100.00
60611;BME280;46439;51.164;13.572;2023-05-27T02:53:43;101211.80;;;11.89;100.00
60611;BME280;46439;51.164;13.572;2023-05-27T02:56:11;101215.67;;;11.88;100.00
60611;BME280;46439;51.164;13.572;2023-05-27T02:58:40;101220.70;;;11.99;100.00
60611;BME280;46439;51.164;13.572;2023-05-27T03:01:08;101218.87;;;12.03;100.00
60611;BME280;46439;51.164;13.572;2023-05-27T03:03:37;101216.99;;;12.05;100.00
60611;BME280;46439;51.164;13.572;2023-05-27T03:06:06;101220.39;;;12.04;100.00
60611;BME280;46439;51.164;13.572;2023-05-27T03:08:35;101220.46;;;11.98;100.00
60611;BME280;46439;51.164;13.572;2023-05-27T03:11:04;101222.88;;;11.99;100.00
60611;BME280;46439;51.164;13.572;2023-05-27T03:13:33;101222.57;;;11.97;100.00
60611;BME280;46439;51.164;13.572;2023-05-27T03:16:02;101223.83;;;11.93;100.00
60611;BME280;46439;51.164;13.572;2023-05-27T03:18:30;101220.06;;;11.89;100.00
60611;BME280;46439;51.164;13.572;2023-05-27T03:20:59;101220.54;;;11.88;100.00
60611;BME280;46439;51.164;13.572;2023-05-27T03:23:27;101222.02;;;11.86;100.00
60611;BME280;46439;51.164;13.572;2023-05-27T03:25:56;101221.37;;;11.82;100.00
60611;BME280;46439;51.164;13.572;2023-05-27T03:28:25;101221.33;;;11.75;100.00
60611;BME280;46439;51.164;13.572;2023-05-27T03:30:54;101221.39;;;11.69;100.00
60611;BME280;46439;51.164;13.572;2023-05-27T03:33:25;101222.65;;;11.62;100.00
60611;BME280;46439;51.164;13.572;2023-05-27T03:35:53;101219.86;;;11.59;100.00
60611;BME280;46439;51.164;13.572;2023-05-27T03:38:24;101224.46;;;11.58;100.00
60611;BME280;46439;51.164;13.572;2023-05-27T03:40:52;101219.93;;;11.58;100.00
60611;BME280;46439;51.164;13.572;2023-05-27T03:43:21;101224.48;;;11.60;100.00
60611;BME280;46439;51.164;13.572;2023-05-27T03:45:50;101227.51;;;11.62;100.00
60611;BME280;46439;51.164;13.572;2023-05-27T03:48:19;101226.52;;;11.59;100.00
60611;BME280;46439;51.164;13.572;2023-05-27T03:50:47;101231.85;;;11.57;100.00
60611;BME280;46439;51.164;13.572;2023-05-27T03:53:16;101231.72;;;11.56;100.00
60611;BME280;46439;51.164;13.572;2023-05-27T03:55:45;101232.59;;;11.56;100.00
60611;BME280;46439;51.164;13.572;2023-05-27T03:58:14;101233.48;;;11.54;100.00
60611;BME280;46439;51.164;13.572;2023-05-27T04:00:43;101232.56;;;11.53;100.00
60611;BME280;46439;51.164;13.572;2023-05-27T04:03:11;101232.96;;;11.52;100.00
60611;BME280;46439;51.164;13.572;2023-05-27T04:05:40;101232.73;;;11.47;100.00
60611;BME280;46439;51.164;13.572;2023-05-27T04:08:09;101235.66;;;11.47;100.00
60611;BME280;46439;51.164;13.572;2023-05-27T04:10:37;101231.14;;;11.60;100.00
60611;BME280;46439;51.164;13.572;2023-05-27T04:13:06;101232.88;;;11.67;100.00
60611;BME280;46439;51.164;13.572;2023-05-27T04:15:35;101233.98;;;11.73;100.00
60611;BME280;46439;51.164;13.572;2023-05-27T04:18:05;101230.60;;;11.78;100.00
60611;BME280;46439;51.164;13.572;2023-05-27T04:20:38;101235.59;;;11.84;100.00
60611;BME280;46439;51.164;13.572;2023-05-27T04:23:08;101234.13;;;11.87;100.00
60611;BME280;46439;51.164;13.572;2023-05-27T04:25:38;101234.67;;;11.87;100.00
60611;BME280;46439;51.164;13.572;2023-05-27T04:28:07;101236.95;;;11.90;100.00
60611;BME280;46439;51.164;13.572;2023-05-27T04:30:37;101233.27;;;11.91;100.00
60611;BME280;46439;51.164;13.572;2023-05-27T04:33:08;101235.92;;;11.87;100.00
60611;BME280;46439;51.164;13.572;2023-05-27T04:35:38;101238.42;;;11.99;100.00
60611;BME280;46439;51.164;13.572;2023-05-27T04:38:09;101234.21;;;12.01;100.00
60611;BME280;46439;51.164;13.572;2023-05-27T04:40:39;101235.84;;;12.05;100.00
60611;BME280;46439;51.164;13.572;2023-05-27T04:43:09;101240.86;;;12.07;100.00
60611;BME280;46439;51.164;13.572;2023-05-27T04:45:41;101243.48;;;12.05;100.00
60611;BME280;46439;51.164;13.572;2023-05-27T04:48:12;101246.32;;;12.22;100.00
60611;BME280;46439;51.164;13.572;2023-05-27T04:50:40;101248.27;;;12.33;100.00
60611;BME280;46439;51.164;13.572;2023-05-27T04:53:09;101246.16;;;12.38;100.00
60611;BME280;46439;51.164;13.572;2023-05-27T04:55:38;101244.14;;;12.43;100.00
60611;BME280;46439;51.164;13.572;2023-05-27T04:58:07;101239.79;;;12.45;100.00
60611;BME280;46439;51.164;13.572;2023-05-27T05:00:36;101239.96;;;12.47;100.00
60611;BME280;46439;51.164;13.572;2023-05-27T05:03:18;101240.67;;;12.53;100.00
60611;BME280;46439;51.164;13.572;2023-05-27T05:05:51;101238.46;;;12.57;100.00
60611;BME280;46439;51.164;13.572;2023-05-27T05:08:21;101242.72;;;12.57;100.00
60611;BME280;46439;51.164;13.572;2023-05-27T05:10:52;101244.36;;;12.57;100.00
60611;BME280;46439;51.164;13.572;2023-05-27T05:13:20;101244.19;;;12.69;100.00
60611;BME280;46439;51.164;13.572;2023-05-27T05:15:49;101246.13;;;12.73;100.00
60611;BME280;46439;51.164;13.572;2023-05-27T05:18:19;101243.88;;;12.70;100.00
60611;BME280;46439;51.164;13.572;2023-05-27T05:20:51;101248.95;;;12.68;100.00
60611;BME280;46439;51.164;13.572;2023-05-27T05:23:21;101250.62;;;12.68;100.00
60611;BME280;46439;51.164;13.572;2023-05-27T05:25:51;101250.64;;;12.73;100.00
60611;BME280;46439;51.164;13.572;2023-05-27T05:28:26;101249.52;;;12.78;100.00
60611;BME280;46439;51.164;13.572;2023-05-27T05:30:57;101249.79;;;12.83;100.00
60611;BME280;46439;51.164;13.572;2023-05-27T05:33:29;101252.55;;;12.96;100.00
60611;BME280;46439;51.164;13.572;2023-05-27T05:35:59;101250.33;;;12.98;100.00
60611;BME280;46439;51.164;13.572;2023-05-27T05:38:30;101258.85;;;13.04;100.00
60611;BME280;46439;51.164;13.572;2023-05-27T05:41:03;101259.52;;;13.10;100.00
60611;BME280;46439;51.164;13.572;2023-05-27T05:43:37;101261.02;;;13.13;100.00
60611;BME280;46439;51.164;13.572;2023-05-27T05:46:10;101263.20;;;13.17;100.00
60611;BME280;46439;51.164;13.572;2023-05-27T05:48:39;101261.73;;;13.20;100.00
60611;BME280;46439;51.164;13.572;2023-05-27T05:51:08;101268.21;;;13.22;100.00
60611;BME280;46439;51.164;13.572;2023-05-27T05:53:36;101268.27;;;13.27;100.00
60611;BME280;46439;51.164;13.572;2023-05-27T05:56:06;101268.67;;;13.39;100.00
60611;BME280;46439;51.164;13.572;2023-05-27T05:58:35;101267.98;;;13.46;100.00
60611;BME280;46439;51.164;13.572;2023-05-27T06:01:04;101268.65;;;13.57;100.00
60611;BME280;46439;51.164;13.572;2023-05-27T06:03:32;101270.54;;;13.71;100.00
60611;BME280;46439;51.164;13.572;2023-05-27T06:06:01;101268.42;;;13.87;100.00
60611;BME280;46439;51.164;13.572;2023-05-27T06:08:32;101267.96;;;13.98;100.00
60611;BME280;46439;51.164;13.572;2023-05-27T06:11:04;101273.25;;;13.95;100.00
60611;BME280;46439;51.164;13.572;2023-05-27T06:13:33;101278.20;;;13.89;100.00
60611;BME280;46439;51.164;13.572;2023-05-27T06:16:01;101280.45;;;13.95;100.00
60611;BME280;46439;51.164;13.572;2023-05-27T06:18:30;101279.64;;;14.06;100.00
60611;BME280;46439;51.164;13.572;2023-05-27T06:21:00;101283.85;;;14.05;100.00
60611;BME280;46439;51.164;13.572;2023-05-27T06:23:29;101277.30;;;14.11;100.00
60611;BME280;46439;51.164;13.572;2023-05-27T06:25:57;101276.86;;;14.19;100.00
60611;BME280;46439;51.164;13.572;2023-05-27T06:28:26;101279.84;;;14.24;100.00
60611;BME280;46439;51.164;13.572;2023-05-27T06:30:55;101280.27;;;14.31;100.00
60611;BME280;46439;51.164;13.572;2023-05-27T06:33:24;101276.30;;;14.41;100.00
60611;BME280;46439;51.164;13.572;2023-05-27T06:35:52;101280.10;;;14.54;100.00
60611;BME280;46439;51.164;13.572;2023-05-27T06:38:21;101281.65;;;14.73;100.00
60611;BME280;46439;51.164;13.572;2023-05-27T06:40:50;101277.02;;;14.83;100.00
60611;BME280;46439;51.164;13.572;2023-05-27T06:43:19;101277.70;;;14.93;100.00
60611;BME280;46439;51.164;13.572;2023-05-27T06:45:47;101273.42;;;15.04;100.00
60611;BME280;46439;51.164;13.572;2023-05-27T06:48:16;101270.82;;;15.09;100.00
60611;BME280;46439;51.164;13.572;2023-05-27T06:50:45;101266.34;;;15.21;100.00
60611;BME280;46439;51.164;13.572;2023-05-27T06:53:14;101263.39;;;15.42;100.00
60611;BME280;46439;51.164;13.572;2023-05-27T06:55:42;101258.35;;;15.54;100.00
60611;BME280;46439;51.164;13.572;2023-05-27T06:58:11;101259.52;;;15.65;100.00
60611;BME280;46439;51.164;13.572;2023-05-27T07:00:39;101257.92;;;15.70;100.00
60611;BME280;46439;51.164;13.572;2023-05-27T07:03:08;101258.63;;;15.69;100.00
60611;BME280;46439;51.164;13.572;2023-05-27T07:05:36;101261.59;;;15.68;100.00
60611;BME280;46439;51.164;13.572;2023-05-27T07:08:06;101267.77;;;15.73;100.00
60611;BME280;46439;51.164;13.572;2023-05-27T07:10:35;101266.45;;;15.80;100.00
60611;BME280;46439;51.164;13.572;2023-05-27T07:13:03;101266.91;;;15.85;100.00
60611;BME280;46439;51.164;13.572;2023-05-27T07:15:32;101265.66;;;15.87;100.00
60611;BME280;46439;51.164;13.572;2023-05-27T07:18:01;101260.55;;;15.88;100.00
60611;BME280;46439;51.164;13.572;2023-05-27T07:20:30;101258.26;;;15.92;100.00
60611;BME280;46439;51.164;13.572;2023-05-27T07:22:58;101255.05;;;16.06;100.00
60611;BME280;46439;51.164;13.572;2023-05-27T07:25:27;101254.96;;;16.17;100.00
60611;BME280;46439;51.164;13.572;2023-05-27T07:27:55;101253.44;;;16.21;100.00
60611;BME280;46439;51.164;13.572;2023-05-27T07:30:24;101252.06;;;16.32;100.00
60611;BME280;46439;51.164;13.572;2023-05-27T07:32:53;101255.26;;;16.46;100.00
60611;BME280;46439;51.164;13.572;2023-05-27T07:35:22;101256.19;;;16.52;100.00
60611;BME280;46439;51.164;13.572;2023-05-27T07:37:52;101253.27;;;16.62;100.00
60611;BME280;46439;51.164;13.572;2023-05-27T07:40:21;101252.27;;;16.66;100.00
60611;BME280;46439;51.164;13.572;2023-05-27T07:42:50;101249.65;;;16.72;100.00
60611;BME280;46439;51.164;13.572;2023-05-27T07:45:19;101247.56;;;16.83;100.00
60611;BME280;46439;51.164;13.572;2023-05-27T07:47:47;101247.61;;;16.86;100.00
60611;BME280;46439;51.164;13.572;2023-05-27T07:50:16;101249.12;;;16.91;100.00
60611;BME280;46439;51.164;13.572;2023-05-27T07:52:45;101249.84;;;17.05;100.00
60611;BME280;46439;51.164;13.572;2023-05-27T07:55:14;101248.15;;;16.92;100.00
60611;BME280;46439;51.164;13.572;2023-05-27T07:57:43;101253.66;;;16.66;100.00
60611;BME280;46439;51.164;13.572;2023-05-27T08:00:13;101254.38;;;16.57;100.00
60611;BME280;46439;51.164;13.572;2023-05-27T08:02:42;101250.20;;;16.48;100.00
60611;BME280;46439;51.164;13.572;2023-05-27T08:05:11;101246.68;;;16.62;100.00
60611;BME280;46439;51.164;13.572;2023-05-27T08:07:40;101241.71;;;16.62;100.00
60611;BME280;46439;51.164;13.572;2023-05-27T08:10:10;101243.27;;;16.55;100.00
60611;BME280;46439;51.164;13.572;2023-05-27T08:12:40;101237.05;;;16.47;100.00
60611;BME280;46439;51.164;13.572;2023-05-27T08:15:09;101232.23;;;16.54;100.00
60611;BME280;46439;51.164;13.572;2023-05-27T08:17:38;101221.76;;;16.66;100.00
60611;BME280;46439;51.164;13.572;2023-05-27T08:20:08;101220.71;;;16.72;100.00
60611;BME280;46439;51.164;13.572;2023-05-27T08:22:37;101219.15;;;16.78;100.00
60611;BME280;46439;51.164;13.572;2023-05-27T08:25:07;101219.54;;;16.95;100.00
60611;BME280;46439;51.164;13.572;2023-05-27T08:27:46;101216.49;;;17.04;100.00
60611;BME280;46439;51.164;13.572;2023-05-27T08:30:16;101212.98;;;17.07;100.00
60611;BME280;46439;51.164;13.572;2023-05-27T08:32:45;101208.59;;;17.16;100.00
60611;BME280;46439;51.164;13.572;2023-05-27T08:35:14;101205.38;;;17.17;100.00
60611;BME280;46439;51.164;13.572;2023-05-27T08:37:43;101209.15;;;17.20;100.00
60611;BME280;46439;51.164;13.572;2023-05-27T08:40:14;101208.98;;;17.20;100.00
60611;BME280;46439;51.164;13.572;2023-05-27T08:42:44;101204.77;;;17.26;100.00
60611;BME280;46439;51.164;13.572;2023-05-27T08:45:14;101207.23;;;17.30;100.00
60611;BME280;46439;51.164;13.572;2023-05-27T08:47:43;101201.56;;;17.33;100.00
60611;BME280;46439;51.164;13.572;2023-05-27T08:50:12;101196.82;;;17.43;100.00
60611;BME280;46439;51.164;13.572;2023-05-27T08:52:44;101186.16;;;17.59;100.00
60611;BME280;46439;51.164;13.572;2023-05-27T08:55:16;101178.86;;;17.76;100.00
60611;BME280;46439;51.164;13.572;2023-05-27T08:57:53;101178.38;;;17.94;100.00
60611;BME280;46439;51.164;13.572;2023-05-27T09:00:23;101177.18;;;18.13;100.00
60611;BME280;46439;51.164;13.572;2023-05-27T09:02:52;101175.76;;;18.15;100.00
60611;BME280;46439;51.164;13.572;2023-05-27T09:05:25;101171.75;;;18.13;100.00
60611;BME280;46439;51.164;13.572;2023-05-27T09:07:54;101168.54;;;18.15;100.00
60611;BME280;46439;51.164;13.572;2023-05-27T09:10:23;101164.14;;;18.37;100.00
60611;BME280;46439;51.164;13.572;2023-05-27T09:12:51;101162.09;;;18.51;100.00
60611;BME280;46439;51.164;13.572;2023-05-27T09:15:20;101158.37;;;18.57;100.00
60611;BME280;46439;51.164;13.572;2023-05-27T09:17:51;101157.58;;;18.76;100.00
60611;BME280;46439;51.164;13.572;2023-05-27T09:20:25;101160.81;;;18.76;100.00
60611;BME280;46439;51.164;13.572;2023-05-27T09:22:59;101156.33;;;18.83;100.00
60611;BME280;46439;51.164;13.572;2023-05-27T09:25:28;101152.48;;;18.90;100.00
60611;BME280;46439;51.164;13.572;2023-05-27T09:27:58;101147.48;;;19.00;100.00
60611;BME280;46439;51.164;13.572;2023-05-27T09:30:26;101144.07;;;19.15;100.00
60611;BME280;46439;51.164;13.572;2023-05-27T09:33:01;101146.42;;;19.29;100.00
60611;BME280;46439;51.164;13.572;2023-05-27T09:35:36;101146.90;;;19.35;100.00
60611;BME280;46439;51.164;13.572;2023-05-27T09:38:09;101146.82;;;19.34;100.00
60611;BME280;46439;51.164;13.572;2023-05-27T09:40:38;101143.41;;;19.38;100.00
60611;BME280;46439;51.164;13.572;2023-05-27T09:43:12;101145.30;;;19.32;100.00
60611;BME280;46439;51.164;13.572;2023-05-27T09:45:41;101137.15;;;19.35;100.00
60611;BME280;46439;51.164;13.572;2023-05-27T09:48:11;101140.38;;;19.40;100.00
60611;BME280;46439;51.164;13.572;2023-05-27T09:50:41;101138.68;;;19.34;100.00
60611;BME280;46439;51.164;13.572;2023-05-27T09:53:11;101134.34;;;19.30;100.00
60611;BME280;46439;51.164;13.572;2023-05-27T09:55:42;101123.54;;;19.37;100.00
60611;BME280;46439;51.164;13.572;2023-05-27T09:58:12;101123.48;;;19.50;100.00
60611;BME280;46439;51.164;13.572;2023-05-27T10:00:41;101122.30;;;19.63;100.00
60611;BME280;46439;51.164;13.572;2023-05-27T10:03:10;101122.23;;;19.79;100.00
60611;BME280;46439;51.164;13.572;2023-05-27T10:05:41;101118.89;;;19.96;100.00
60611;BME280;46439;51.164;13.572;2023-05-27T10:08:09;101106.89;;;20.11;100.00
60611;BME280;46439;51.164;13.572;2023-05-27T10:10:39;101106.79;;;20.20;100.00
60611;BME280;46439;51.164;13.572;2023-05-27T10:13:09;101106.77;;;20.28;100.00
60611;BME280;46439;51.164;13.572;2023-05-27T10:15:37;101098.92;;;20.32;100.00
60611;BME280;46439;51.164;13.572;2023-05-27T10:18:07;101103.64;;;20.32;100.00
60611;BME280;46439;51.164;13.572;2023-05-27T10:20:41;101102.66;;;20.21;100.00
60611;BME280;46439;51.164;13.572;2023-05-27T10:23:15;101098.94;;;20.23;100.00
60611;BME280;46439;51.164;13.572;2023-05-27T10:25:48;101104.56;;;20.21;100.00
60611;BME280;46439;51.164;13.572;2023-05-27T10:28:27;101101.63;;;20.31;100.00
60611;BME280;46439;51.164;13.572;2023-05-27T10:31:05;101097.56;;;20.35;100.00
60611;BME280;46439;51.164;13.572;2023-05-27T10:33:35;101093.80;;;20.50;100.00
60611;BME280;46439;51.164;13.572;2023-05-27T10:36:09;101086.17;;;20.65;100.00
60611;BME280;46439;51.164;13.572;2023-05-27T10:38:41;101089.67;;;20.84;100.00
60611;BME280;46439;51.164;13.572;2023-05-27T10:41:11;101090.25;;;21.02;100.00
60611;BME280;46439;51.164;13.572;2023-05-27T10:43:40;101089.00;;;21.07;100.00
60611;BME280;46439;51.164;13.572;2023-05-27T10:46:11;101089.89;;;21.05;100.00
60611;BME280;46439;51.164;13.572;2023-05-27T10:48:40;101084.18;;;21.13;100.00
60611;BME280;46439;51.164;13.572;2023-05-27T10:51:09;101088.52;;;21.21;100.00
60611;BME280;46439;51.164;13.572;2023-05-27T10:53:38;101088.25;;;21.29;100.00
60611;BME280;46439;51.164;13.572;2023-05-27T10:56:07;101086.83;;;21.35;100.00
60611;BME280;46439;51.164;13.572;2023-05-27T10:58:39;101082.77;;;21.33;100.00
60611;BME280;46439;51.164;13.572;2023-05-27T11:01:11;101082.23;;;21.21;100.00
60611;BME280;46439;51.164;13.572;2023-05-27T11:03:44;101079.13;;;21.22;100.00
60611;BME280;46439;51.164;13.572;2023-05-27T11:06:13;101074.34;;;21.31;100.00
60611;BME280;46439;51.164;13.572;2023-05-27T11:08:43;101074.75;;;21.38;100.00
60611;BME280;46439;51.164;13.572;2023-05-27T11:11:13;101071.67;;;21.38;100.00
60611;BME280;46439;51.164;13.572;2023-05-27T11:13:43;101066.58;;;21.41;100.00
60611;BME280;46439;51.164;13.572;2023-05-27T11:16:13;101062.05;;;21.51;100.00
60611;BME280;46439;51.164;13.572;2023-05-27T11:18:43;101052.51;;;21.59;100.00
60611;BME280;46439;51.164;13.572;2023-05-27T11:21:14;101052.80;;;21.70;100.00
60611;BME280;46439;51.164;13.572;2023-05-27T11:23:47;101045.83;;;21.77;100.00
60611;BME280;46439;51.164;13.572;2023-05-27T11:26:19;101041.83;;;21.83;100.00
60611;BME280;46439;51.164;13.572;2023-05-27T11:28:52;101042.32;;;21.86;100.00
60611;BME280;46439;51.164;13.572;2023-05-27T11:31:20;101041.30;;;21.87;100.00
60611;BME280;46439;51.164;13.572;2023-05-27T11:33:50;101035.84;;;21.81;100.00
60611;BME280;46439;51.164;13.572;2023-05-27T11:36:19;101036.20;;;21.77;100.00
60611;BME280;46439;51.164;13.572;2023-05-27T11:38:53;101027.89;;;21.78;100.00
60611;BME280;46439;51.164;13.572;2023-05-27T11:41:23;101026.05;;;21.92;100.00
60611;BME280;46439;51.164;13.572;2023-05-27T11:43:57;101028.77;;;22.03;100.00
60611;BME280;46439;51.164;13.572;2023-05-27T11:46:35;101023.44;;;22.03;100.00
60611;BME280;46439;51.164;13.572;2023-05-27T11:49:05;101019.35;;;22.12;100.00
60611;BME280;46439;51.164;13.572;2023-05-27T11:51:36;101010.91;;;22.30;100.00
60611;BME280;46439;51.164;13.572;2023-05-27T11:54:05;101005.79;;;22.38;100.00
60611;BME280;46439;51.164;13.572;2023-05-27T11:56:34;101004.89;;;22.54;100.00
60611;BME280;46439;51.164;13.572;2023-05-27T11:59:03;101006.20;;;22.65;100.00
60611;BME280;46439;51.164;13.572;2023-05-27T12:01:31;100994.16;;;22.68;100.00
60611;BME280;46439;51.164;13.572;2023-05-27T12:04:00;100997.64;;;22.74;100.00
60611;BME280;46439;51.164;13.572;2023-05-27T12:06:28;100994.91;;;22.55;100.00
60611;BME280;46439;51.164;13.572;2023-05-27T12:08:57;100991.55;;;22.46;100.00
60611;BME280;46439;51.164;13.572;2023-05-27T12:11:26;100984.50;;;22.44;100.00
60611;BME280;46439;51.164;13.572;2023-05-27T12:13:57;100982.39;;;22.54;100.00
60611;BME280;46439;51.164;13.572;2023-05-27T12:16:26;100982.52;;;22.54;100.00
60611;BME280;46439;51.164;13.572;2023-05-27T12:18:55;100980.92;;;22.50;100.00
60611;BME280;46439;51.164;13.572;2023-05-27T12:21:24;100975.84;;;22.59;100.00
60611;BME280;46439;51.164;13.572;2023-05-27T12:23:53;100973.82;;;22.69;100.00
60611;BME280;46439;51.164;13.572;2023-05-27T12:26:22;100968.77;;;22.77;100.00
60611;BME280;46439;51.164;13.572;2023-05-27T12:28:51;100965.12;;;22.88;100.00
60611;BME280;46439;51.164;13.572;2023-05-27T12:31:19;100965.27;;;22.95;100.00
60611;BME280;46439;51.164;13.572;2023-05-27T12:33:48;100958.11;;;22.94;100.00
60611;BME280;46439;51.164;13.572;2023-05-27T12:36:17;100954.04;;;23.12;100.00
60611;BME280;46439;51.164;13.572;2023-05-27T12:38:47;100958.06;;;23.21;100.00
60611;BME280;46439;51.164;13.572;2023-05-27T12:41:16;100953.77;;;23.10;100.00
60611;BME280;46439;51.164;13.572;2023-05-27T12:43:44;100950.59;;;23.18;100.00